Time;durP1;ratioP1;P1;durP2;ratioP2;P2;SDS_P1;SDS_P2;PMS_P1;PMS_P2;Temp;Humidity;BMP_temperature;BMP_pressure;BME280_temperature;BME280_humidity;BME280_pressure;Samples;Min_cycle;Max_cycle;Signal;HPM_P1;HPM_P2
2023/07/06 00:00:16;;;;;;;9.80;6.20;;;;;;;20.88;97.59;94592.75;5092187;28;20209;-45
2023/07/06 00:02:43;;;;;;;7.40;6.68;;;;;;;20.94;97.80;94595.34;5091509;28;20201;-44
2023/07/06 00:05:11;;;;;;;6.93;6.30;;;;;;;20.93;97.62;94592.91;5091837;28;20675;-45
2023/07/06 00:07:38;;;;;;;8.15;7.07;;;;;;;20.82;97.95;94580.56;5091463;28;20749;-43
2023/07/06 00:10:07;;;;;;;6.75;6.15;;;;;;;20.95;97.81;94589.13;5074586;28;20212;-43
2023/07/06 00:12:34;;;;;;;6.85;6.22;;;;;;;20.97;97.60;94589.72;5092151;28;20190;-44
2023/07/06 00:15:01;;;;;;;8.13;6.82;;;;;;;20.97;97.80;94594.91;5091860;28;20194;-44
2023/07/06 00:17:29;;;;;;;12.13;6.28;;;;;;;20.95;98.11;94577.94;5091299;28;20614;-44
2023/07/06 00:19:56;;;;;;;7.72;6.78;;;;;;;21.00;98.21;94583.31;5090566;28;20217;-43
2023/07/06 00:22:23;;;;;;;7.50;6.55;;;;;;;21.02;98.22;94581.28;5091506;28;20575;-44
2023/07/06 00:24:52;;;;;;;6.65;6.00;;;;;;;20.94;98.54;94566.75;5073424;28;20204;-45
2023/07/06 00:27:20;;;;;;;6.80;6.10;;;;;;;21.04;98.38;94579.31;5091577;28;20205;-41
2023/07/06 00:30:07;;;;;;;9.90;6.82;;;;;;;21.08;98.24;94582.28;5091391;28;20247;-43
2023/07/06 00:32:33;;;;;;;7.00;6.10;;;;;;;21.07;98.19;94568.50;5091304;28;20194;-44
2023/07/06 00:35:00;;;;;;;7.03;6.32;;;;;;;21.09;99.06;94573.50;5091277;28;20186;-42
2023/07/06 00:37:29;;;;;;;7.65;6.43;;;;;;;21.07;99.57;94575.47;5091378;28;20649;-44
2023/07/06 00:39:55;;;;;;;6.85;6.18;;;;;;;21.05;99.53;94571.28;5090867;28;20227;-45
2023/07/06 00:42:23;;;;;;;7.25;6.55;;;;;;;21.07;99.42;94576.31;5091290;28;20197;-45
2023/07/06 00:44:53;;;;;;;7.13;6.43;;;;;;;20.85;99.83;94541.94;5091033;28;20209;-47
2023/07/06 00:47:30;;;;;;;13.27;6.32;;;;;;;21.05;99.93;94567.88;5091274;28;20205;-43
2023/07/06 00:50:02;;;;;;;7.35;6.65;;;;;;;21.03;100.00;94572.50;5090849;28;20625;-45
2023/07/06 00:52:29;;;;;;;7.10;6.40;;;;;;;21.02;100.00;94563.09;5091268;28;20247;-45
2023/07/06 00:54:56;;;;;;;8.48;6.32;;;;;;;21.04;99.80;94568.91;5091315;28;20307;-44
2023/07/06 00:57:25;;;;;;;7.20;6.50;;;;;;;21.02;100.00;94568.28;5090894;28;20638;-45
2023/07/06 00:59:54;;;;;;;7.28;6.43;;;;;;;20.98;100.00;94570.53;5090618;28;20225;-45
2023/07/06 01:02:21;;;;;;;7.95;7.07;;;;;;;20.83;100.00;94543.97;5091080;28;20190;-43
2023/07/06 01:04:48;;;;;;;7.95;7.25;;;;;;;20.94;100.00;94560.72;5090647;28;20546;-45
2023/07/06 01:07:20;;;;;;;8.25;6.60;;;;;;;20.93;100.00;94557.31;5091131;28;20189;-45
2023/07/06 01:09:47;;;;;;;9.88;7.25;;;;;;;20.93;100.00;94553.94;5090400;28;20197;-42
2023/07/06 01:12:15;;;;;;;7.63;6.85;;;;;;;20.94;100.00;94552.91;5090463;28;20250;-44
2023/07/06 01:14:45;;;;;;;7.00;6.30;;;;;;;20.93;100.00;94546.13;5090642;28;20274;-44
2023/07/06 01:17:18;;;;;;;7.57;6.80;;;;;;;20.94;100.00;94542.50;5090317;28;20595;-44
2023/07/06 01:20:14;;;;;;;7.20;6.53;;;;;;;20.92;100.00;94547.13;5090383;28;20225;-45
2023/07/06 01:23:08;;;;;;;7.20;6.50;;;;;;;20.90;100.00;94547.34;5090402;28;20228;-44
2023/07/06 01:25:54;;;;;;;6.50;5.90;;;;;;;20.93;100.00;94546.13;5008301;28;20188;-44
2023/07/06 01:28:50;;;;;;;7.97;7.15;;;;;;;20.84;100.00;94523.97;5007650;28;20242;-42
2023/07/06 01:31:28;;;;;;;7.43;5.95;;;;;;;20.96;100.00;94532.72;5007750;28;20339;-45
2023/07/06 01:34:00;;;;;;;6.75;5.90;;;;;;;20.96;100.00;94538.72;5008058;28;20200;-45
2023/07/06 01:36:35;;;;;;;7.20;6.20;;;;;;;20.96;100.00;94543.13;5007835;28;20204;-45
2023/07/06 01:39:13;;;;;;;7.10;6.45;;;;;;;20.95;100.00;94539.72;5007625;28;20192;-46
2023/07/06 01:41:41;;;;;;;6.85;6.18;;;;;;;20.94;100.00;94534.72;5007687;28;20557;-44
2023/07/06 01:44:11;;;;;;;7.72;6.93;;;;;;;20.90;100.00;94542.16;5008206;28;20275;-45
2023/07/06 01:46:42;;;;;;;9.35;6.65;;;;;;;20.83;99.87;94522.38;5007979;28;20200;-45
2023/07/06 01:49:10;;;;;;;11.43;7.38;;;;;;;20.92;99.85;94544.53;5007892;28;20192;-46
2023/07/06 01:51:49;;;;;;;7.28;6.13;;;;;;;20.92;99.48;94549.72;5007852;28;20764;-44
2023/07/06 01:54:22;;;;;;;7.10;6.40;;;;;;;20.81;99.49;94525.16;5007727;28;20652;-44
2023/07/06 01:56:55;;;;;;;6.68;6.05;;;;;;;20.88;100.00;94538.16;5007778;28;20254;-45
2023/07/06 01:59:26;;;;;;;8.50;6.80;;;;;;;20.87;100.00;94546.97;5007853;28;20230;-44
2023/07/06 02:02:01;;;;;;;11.82;6.07;;;;;;;20.86;100.00;94540.16;5017595;28;20219;-43
2023/07/06 02:04:30;;;;;;;7.47;6.82;;;;;;;20.84;100.00;94540.34;5089996;28;20225;-44
2023/07/06 02:07:00;;;;;;;9.55;6.65;;;;;;;20.74;100.00;94535.59;5090239;28;20197;-47
2023/07/06 02:09:27;;;;;;;7.75;7.05;;;;;;;20.71;100.00;94541.19;5090202;28;20193;-45
2023/07/06 02:11:54;;;;;;;7.18;6.53;;;;;;;20.63;100.00;94532.81;5089769;28;20193;-44
2023/07/06 02:14:22;;;;;;;7.60;6.85;;;;;;;20.67;100.00;94541.78;5089928;28;20201;-46
2023/07/06 02:16:51;;;;;;;7.93;6.80;;;;;;;20.64;100.00;94545.63;5089536;28;20592;-46
2023/07/06 02:19:21;;;;;;;7.57;6.68;;;;;;;20.60;100.00;94541.84;5089413;28;20722;-45
2023/07/06 02:21:50;;;;;;;8.20;6.68;;;;;;;20.55;100.00;94541.63;5089786;28;20208;-45
2023/07/06 02:24:17;;;;;;;8.02;6.45;;;;;;;20.49;100.00;94538.03;5089575;28;20186;-45
2023/07/06 02:26:44;;;;;;;8.25;6.97;;;;;;;20.46;100.00;94546.19;5090032;28;20186;-44
2023/07/06 02:29:11;;;;;;;7.72;6.93;;;;;;;20.52;100.00;94539.44;5068819;28;20237;-45
2023/07/06 02:31:38;;;;;;;7.70;6.93;;;;;;;20.51;100.00;94538.66;5069959;28;20190;-46
2023/07/06 02:34:05;;;;;;;8.20;7.40;;;;;;;20.48;100.00;94540.84;5069515;28;20194;-44
2023/07/06 02:36:33;;;;;;;8.38;7.60;;;;;;;20.43;100.00;94533.63;5069088;28;20290;-44
2023/07/06 02:39:00;;;;;;;7.95;7.15;;;;;;;20.41;100.00;94527.81;5069089;28;20225;-45
2023/07/06 02:41:26;;;;;;;9.95;7.75;;;;;;;20.12;100.00;94479.75;5069140;28;20314;-45
2023/07/06 02:43:53;;;;;;;9.88;8.88;;;;;;;20.44;100.00;94524.03;5071557;28;20194;-45
2023/07/06 02:46:20;;;;;;;9.07;8.10;;;;;;;20.43;100.00;94517.25;5073071;28;20225;-45
2023/07/06 02:48:47;;;;;;;11.90;8.23;;;;;;;20.42;100.00;94524.25;5072808;28;20197;-44
2023/07/06 02:51:14;;;;;;;10.18;7.57;;;;;;;20.40;100.00;94515.84;5073538;28;20251;-46
2023/07/06 02:53:42;;;;;;;13.65;8.32;;;;;;;20.44;100.00;94527.44;5072766;28;20636;-45
2023/07/06 02:56:09;;;;;;;8.73;7.82;;;;;;;20.43;100.00;94525.84;5073079;28;20236;-46
2023/07/06 02:58:37;;;;;;;8.57;7.70;;;;;;;20.43;100.00;94536.22;5072681;28;20698;-47
2023/07/06 03:01:05;;;;;;;11.45;8.45;;;;;;;20.44;100.00;94526.63;5072823;28;20671;-46
2023/07/06 03:03:32;;;;;;;10.55;8.45;;;;;;;20.46;100.00;94525.41;5072455;28;20228;-45
2023/07/06 03:06:02;;;;;;;10.82;8.90;;;;;;;20.47;100.00;94519.25;5073155;28;20251;-44
2023/07/06 03:08:28;;;;;;;12.95;10.05;;;;;;;20.51;100.00;94523.06;5072156;28;20186;-42
2023/07/06 03:10:56;;;;;;;11.80;9.25;;;;;;;20.33;100.00;94494.28;5072634;28;20190;-46
2023/07/06 03:13:25;;;;;;;14.82;9.70;;;;;;;20.45;100.00;94521.22;5072317;28;20267;-46
2023/07/06 03:15:52;;;;;;;13.20;9.43;;;;;;;20.44;100.00;94518.84;5072783;28;20278;-44
2023/07/06 03:18:19;;;;;;;10.18;8.70;;;;;;;20.39;100.00;94519.44;5072024;28;20657;-42
2023/07/06 03:20:48;;;;;;;10.10;8.65;;;;;;;20.46;100.00;94519.41;5072502;28;20382;-45
2023/07/06 03:23:14;;;;;;;11.68;8.70;;;;;;;20.47;100.00;94519.25;5072099;28;20199;-45
2023/07/06 03:25:42;;;;;;;10.55;8.80;;;;;;;20.49;100.00;94519.06;5072613;28;20202;-42
2023/07/06 03:28:11;;;;;;;12.85;8.80;;;;;;;20.47;100.00;94518.44;5080482;28;20335;-45
2023/07/06 03:30:37;;;;;;;13.80;9.45;;;;;;;20.43;100.00;94512.84;5092565;28;20189;-45
2023/07/06 03:33:04;;;;;;;11.57;8.73;;;;;;;20.48;100.00;94512.28;5092662;28;20198;-46
2023/07/06 03:35:31;;;;;;;12.57;8.48;;;;;;;20.48;100.00;94514.88;5092112;28;20189;-44
2023/07/06 03:37:58;;;;;;;8.80;7.88;;;;;;;20.52;100.00;94516.06;5092479;28;20185;-45
2023/07/06 03:40:29;;;;;;;12.85;8.77;;;;;;;20.49;100.00;94503.47;5091873;28;20712;-46
2023/07/06 03:42:56;;;;;;;10.75;7.80;;;;;;;20.60;100.00;94521.03;5092509;28;20204;-45
2023/07/06 03:45:24;;;;;;;9.43;7.47;;;;;;;20.61;100.00;94512.25;5092052;28;20657;-43
2023/07/06 03:47:52;;;;;;;9.38;7.47;;;;;;;20.68;100.00;94520.00;5092352;28;20186;-43
2023/07/06 03:50:21;;;;;;;8.95;7.93;;;;;;;20.73;100.00;94513.22;5091628;28;20201;-42
2023/07/06 03:52:48;;;;;;;9.35;8.45;;;;;;;20.78;100.00;94516.00;5092326;28;20209;-45
2023/07/06 03:55:18;;;;;;;10.10;8.05;;;;;;;20.85;100.00;94521.16;5090606;28;20653;-50
2023/07/06 03:57:46;;;;;;;12.02;8.15;;;;;;;20.91;100.00;94517.75;5092080;28;20272;-43
2023/07/06 04:00:19;;;;;;;9.85;7.47;;;;;;;20.92;100.00;94508.94;5092089;28;20650;-46
2023/07/06 04:02:48;;;;;;;10.20;7.68;;;;;;;21.03;100.00;94518.69;5092017;28;20194;-46
2023/07/06 04:05:17;;;;;;;12.32;7.75;;;;;;;20.62;100.00;94451.47;5074863;28;20255;-42
2023/07/06 04:07:44;;;;;;;12.05;8.48;;;;;;;21.14;100.00;94525.03;5092071;28;20200;-42
2023/07/06 04:10:12;;;;;;;7.78;7.03;;;;;;;21.25;99.39;94526.22;5091589;28;20213;-46
2023/07/06 04:12:39;;;;;;;11.70;7.82;;;;;;;21.35;98.72;94523.97;5091669;28;20232;-43
2023/07/06 04:15:08;;;;;;;11.32;8.32;;;;;;;21.48;97.94;94523.91;5091509;28;20236;-43
2023/07/06 04:17:36;;;;;;;8.85;7.20;;;;;;;21.64;96.48;94520.00;5091731;28;20189;-46
2023/07/06 04:20:10;;;;;;;9.25;8.18;;;;;;;21.74;96.00;94524.75;5091630;28;20247;-45
2023/07/06 04:22:37;;;;;;;11.18;8.02;;;;;;;21.92;95.89;94522.22;5091672;28;20193;-45
2023/07/06 04:25:05;;;;;;;10.20;7.47;;;;;;;22.00;95.15;94516.75;5091752;28;20208;-45
2023/07/06 04:27:32;;;;;;;8.82;6.85;;;;;;;22.23;94.66;94533.63;5091160;28;20712;-46
2023/07/06 04:29:59;;;;;;;7.78;7.07;;;;;;;22.37;93.61;94526.50;5091478;28;20209;-44
2023/07/06 04:32:31;;;;;;;8.10;7.30;;;;;;;22.48;92.12;94534.38;5090725;28;20614;-46
2023/07/06 04:34:58;;;;;;;10.85;7.07;;;;;;;22.62;91.51;94529.03;5091719;28;20224;-44
2023/07/06 04:37:26;;;;;;;10.82;8.27;;;;;;;22.74;91.04;94528.13;5091378;28;20193;-44
2023/07/06 04:39:53;;;;;;;11.18;7.53;;;;;;;22.91;90.52;94525.75;5091075;28;20190;-48
2023/07/06 04:42:20;;;;;;;13.32;7.63;;;;;;;23.02;89.72;94519.81;5090788;28;20269;-45
2023/07/06 04:44:47;;;;;;;10.27;7.55;;;;;;;22.96;89.04;94497.19;5091206;28;20214;-45
2023/07/06 04:47:14;;;;;;;8.85;6.85;;;;;;;22.73;88.97;94445.69;5090814;28;20213;-44
2023/07/06 04:49:41;;;;;;;8.40;6.45;;;;;;;23.25;88.50;94519.13;5091043;28;20193;-44
2023/07/06 04:52:11;;;;;;;10.63;7.43;;;;;;;23.34;88.22;94517.00;5090680;28;20197;-46
2023/07/06 04:54:39;;;;;;;7.68;6.97;;;;;;;23.39;87.08;94519.75;5090798;28;20588;-45
2023/07/06 04:57:07;;;;;;;8.80;5.97;;;;;;;23.50;86.17;94532.06;5090814;28;20194;-45
2023/07/06 04:59:34;;;;;;;7.05;6.30;;;;;;;23.54;84.42;94521.97;5090725;28;20274;-45
2023/07/06 05:02:02;;;;;;;7.50;6.68;;;;;;;23.43;84.95;94520.91;5090344;28;20221;-44
2023/07/06 05:04:30;;;;;;;7.40;6.10;;;;;;;23.45;85.33;94526.72;5090614;28;20213;-44
2023/07/06 05:06:57;;;;;;;9.45;6.28;;;;;;;23.48;85.84;94525.44;5072042;28;20195;-44
2023/07/06 05:09:24;;;;;;;8.93;7.25;;;;;;;23.56;85.83;94532.97;5090958;28;20640;-45
2023/07/06 05:11:53;;;;;;;10.88;8.15;;;;;;;23.72;84.99;94535.00;5090886;28;20228;-46
2023/07/06 05:14:21;;;;;;;10.75;7.07;;;;;;;23.98;82.92;94538.25;5090395;28;20205;-45
2023/07/06 05:16:48;;;;;;;9.18;6.50;;;;;;;24.10;82.36;94540.88;5091073;28;20291;-46
2023/07/06 05:19:15;;;;;;;6.60;6.00;;;;;;;24.38;81.20;94543.66;5090850;28;20218;-46
2023/07/06 05:21:42;;;;;;;6.38;5.78;;;;;;;24.83;79.93;94547.47;5090868;28;20216;-47
2023/07/06 05:24:11;;;;;;;8.38;6.10;;;;;;;25.26;77.82;94550.53;5090592;28;20190;-47
2023/07/06 05:26:38;;;;;;;8.38;5.95;;;;;;;25.75;77.80;94548.25;5090342;28;20182;-46
2023/07/06 05:29:06;;;;;;;7.93;6.22;;;;;;;26.21;75.19;94553.53;5090238;28;20226;-46
2023/07/06 05:31:33;;;;;;;5.72;5.22;;;;;;;26.61;73.05;94557.81;5072295;28;20182;-46
2023/07/06 05:33:59;;;;;;;7.82;5.63;;;;;;;26.93;71.07;94564.00;5090216;28;20677;-46
2023/07/06 05:36:26;;;;;;;9.65;5.28;;;;;;;27.21;69.23;94557.84;5090458;28;20637;-46
2023/07/06 05:38:53;;;;;;;6.22;5.07;;;;;;;27.45;67.83;94565.47;5090325;28;20267;-46
2023/07/06 05:41:20;;;;;;;8.65;5.65;;;;;;;27.77;66.67;94564.78;5090669;28;20214;-48
2023/07/06 05:43:47;;;;;;;7.97;5.45;;;;;;;27.97;66.12;94563.13;5090364;28;20243;-45
2023/07/06 05:46:15;;;;;;;9.68;5.78;;;;;;;28.08;65.15;94571.91;5090177;28;20189;-45
2023/07/06 05:48:42;;;;;;;7.68;5.95;;;;;;;28.09;65.42;94575.31;5089981;28;20675;-46
2023/07/06 05:51:09;;;;;;;6.40;5.07;;;;;;;28.23;64.89;94573.88;5072059;28;20208;-45
2023/07/06 05:53:35;;;;;;;7.95;5.82;;;;;;;28.35;63.47;94568.44;5090015;28;20641;-45
2023/07/06 05:56:02;;;;;;;5.38;4.88;;;;;;;28.17;63.94;94561.72;5089901;28;20216;-47
2023/07/06 05:58:29;;;;;;;5.47;4.75;;;;;;;27.91;62.42;94502.88;5089983;28;20186;-46
2023/07/06 06:00:56;;;;;;;5.22;4.72;;;;;;;28.35;62.61;94571.91;5089646;28;20286;-45
2023/07/06 06:03:24;;;;;;;6.38;5.18;;;;;;;28.40;63.31;94574.56;5089961;28;20200;-45
2023/07/06 06:05:53;;;;;;;7.95;5.53;;;;;;;28.48;63.13;94568.84;5089831;28;20201;-45
2023/07/06 06:08:19;;;;;;;6.40;5.28;;;;;;;28.56;63.22;94566.78;5090172;28;20726;-46
2023/07/06 06:10:49;;;;;;;7.65;5.93;;;;;;;28.58;63.51;94569.94;5089647;28;20201;-46
2023/07/06 06:13:16;;;;;;;8.35;5.80;;;;;;;28.66;63.07;94570.25;5089671;28;20221;-45
2023/07/06 06:15:42;;;;;;;5.60;5.10;;;;;;;28.84;63.49;94571.69;5089548;28;20228;-46
2023/07/06 06:18:09;;;;;;;6.38;5.15;;;;;;;29.13;61.69;94581.88;5090929;28;20577;-46
2023/07/06 06:20:37;;;;;;;5.70;5.18;;;;;;;29.40;62.02;94579.09;5093721;28;20193;-45
2023/07/06 06:23:06;;;;;;;6.50;5.03;;;;;;;29.68;60.43;94581.34;5094481;28;20197;-48
2023/07/06 06:25:33;;;;;;;8.35;5.20;;;;;;;29.75;59.31;94575.81;5094435;28;20182;-45
2023/07/06 06:28:00;;;;;;;9.27;5.03;;;;;;;29.69;58.82;94574.22;5093577;28;20221;-46
2023/07/06 06:30:27;;;;;;;8.70;5.30;;;;;;;29.57;59.04;94573.66;5094234;28;20189;-45
2023/07/06 06:32:56;;;;;;;5.78;5.25;;;;;;;29.33;59.64;94570.66;5093637;28;20204;-46
2023/07/06 06:35:25;;;;;;;7.20;4.93;;;;;;;29.23;60.17;94559.03;5093812;28;20209;-45
2023/07/06 06:37:53;;;;;;;9.38;5.45;;;;;;;29.59;59.39;94577.63;5093711;28;20209;-46
2023/07/06 06:40:20;;;;;;;7.68;5.00;;;;;;;29.54;58.38;94564.41;5093818;28;20194;-45
2023/07/06 06:42:48;;;;;;;5.95;5.40;;;;;;;29.39;59.21;94570.41;5093340;28;20711;-46
2023/07/06 06:45:15;;;;;;;5.75;5.13;;;;;;;29.36;58.87;94555.13;5093852;28;20647;-46
2023/07/06 06:47:42;;;;;;;5.97;4.70;;;;;;;29.30;58.97;94561.41;5093513;28;20217;-45
2023/07/06 06:50:11;;;;;;;7.93;4.07;;;;;;;29.31;59.47;94555.09;5093791;28;20266;-45
2023/07/06 06:52:38;;;;;;;5.60;5.00;;;;;;;29.14;59.78;94528.94;5093266;28;20198;-45
2023/07/06 06:55:08;;;;;;;5.72;5.22;;;;;;;29.26;59.02;94557.72;5093501;28;20249;-46
2023/07/06 06:57:35;;;;;;;8.50;5.35;;;;;;;29.13;59.54;94550.28;5093209;28;20603;-46
2023/07/06 07:00:01;;;;;;;5.80;5.28;;;;;;;29.16;59.73;94555.03;5093607;28;20516;-45
2023/07/06 07:02:29;;;;;;;4.72;4.28;;;;;;;29.36;59.72;94552.50;5092902;28;20209;-46
2023/07/06 07:04:59;;;;;;;5.60;4.22;;;;;;;29.73;56.97;94549.72;5093626;28;20182;-47
2023/07/06 07:07:27;;;;;;;6.75;4.43;;;;;;;29.60;56.18;94547.56;5093081;28;20197;-46
2023/07/06 07:09:54;;;;;;;4.50;4.10;;;;;;;29.62;56.60;94544.66;5093402;28;20185;-47
2023/07/06 07:12:23;;;;;;;5.30;4.80;;;;;;;29.91;57.29;94542.34;5092944;28;20200;-46
2023/07/06 07:14:49;;;;;;;7.53;4.28;;;;;;;30.31;55.79;94546.91;5092968;28;20194;-49
2023/07/06 07:17:16;;;;;;;4.72;4.22;;;;;;;30.41;55.91;94544.25;5093080;28;20193;-47
2023/07/06 07:19:43;;;;;;;5.80;5.05;;;;;;;30.54;54.59;94550.81;5092845;28;20193;-46
2023/07/06 07:22:10;;;;;;;8.25;4.22;;;;;;;30.63;55.36;94548.44;5092650;28;20245;-43
2023/07/06 07:24:37;;;;;;;6.03;4.88;;;;;;;30.95;54.88;94556.84;5093103;28;20571;-47
2023/07/06 07:27:04;;;;;;;6.28;4.15;;;;;;;31.26;54.82;94548.00;5093657;28;20201;-47
2023/07/06 07:29:32;;;;;;;6.28;4.53;;;;;;;31.36;53.76;94553.31;5092454;28;20225;-46
2023/07/06 07:31:59;;;;;;;7.25;4.65;;;;;;;31.35;53.18;94546.44;5092965;28;20193;-46
2023/07/06 07:34:27;;;;;;;5.47;4.97;;;;;;;31.33;53.79;94551.97;5092528;28;20675;-44
2023/07/06 07:36:53;;;;;;;5.55;4.50;;;;;;;31.27;53.15;94547.75;5092413;28;20181;-46
2023/07/06 07:39:20;;;;;;;6.53;4.75;;;;;;;31.29;53.49;94555.44;5092189;28;20746;-50
2023/07/06 07:41:47;;;;;;;8.60;4.38;;;;;;;31.46;52.74;94550.59;5092362;28;20693;-46
2023/07/06 07:44:15;;;;;;;4.97;4.45;;;;;;;31.49;52.68;94555.34;5092354;28;20193;-46
2023/07/06 07:46:43;;;;;;;5.82;5.15;;;;;;;31.63;51.69;94558.19;5092393;28;20185;-44
2023/07/06 07:49:10;;;;;;;6.35;4.57;;;;;;;31.34;51.87;94553.56;5092660;28;20271;-44
2023/07/06 07:51:39;;;;;;;5.40;4.70;;;;;;;31.10;52.21;94550.72;5091933;28;20665;-46
2023/07/06 07:54:06;;;;;;;6.40;4.85;;;;;;;30.91;52.81;94552.34;5092232;28;20185;-46
2023/07/06 07:56:32;;;;;;;6.53;5.00;;;;;;;30.87;52.53;94551.31;5092176;28;20189;-46
2023/07/06 07:58:59;;;;;;;5.78;4.25;;;;;;;30.93;53.02;94547.63;5093573;28;20205;-46
2023/07/06 08:01:28;;;;;;;5.03;4.35;;;;;;;31.19;52.72;94545.69;5092607;28;20223;-44
2023/07/06 08:03:57;;;;;;;7.82;4.40;;;;;;;31.44;51.39;94542.94;5091807;28;20201;-45
2023/07/06 08:06:24;;;;;;;7.97;4.20;;;;;;;31.51;50.85;94547.13;5091283;28;20247;-47
2023/07/06 08:08:52;;;;;;;6.43;4.53;;;;;;;31.61;50.17;94555.03;5091642;28;20182;-45
2023/07/06 08:11:22;;;;;;;5.20;4.55;;;;;;;31.69;50.24;94546.50;5091822;28;20189;-46
2023/07/06 08:13:51;;;;;;;7.05;4.78;;;;;;;31.86;49.99;94546.16;5092000;28;20701;-45
2023/07/06 08:16:19;;;;;;;5.30;4.70;;;;;;;32.12;49.39;94544.13;5091514;28;20276;-44
2023/07/06 08:18:48;;;;;;;7.05;5.03;;;;;;;32.08;49.74;94524.56;5091520;28;20700;-45
2023/07/06 08:21:16;;;;;;;7.43;4.93;;;;;;;32.28;49.12;94547.47;5091543;28;20193;-47
2023/07/06 08:23:48;;;;;;;6.95;4.45;;;;;;;32.09;49.00;94542.84;5091503;28;20194;-46
2023/07/06 08:26:15;;;;;;;5.53;4.78;;;;;;;31.93;49.91;94528.94;5091288;28;20228;-44
2023/07/06 08:28:42;;;;;;;5.65;5.13;;;;;;;32.26;49.05;94539.81;5091315;28;20317;-46
2023/07/06 08:31:12;;;;;;;5.80;4.85;;;;;;;32.37;48.18;94545.78;5091205;28;20208;-45
2023/07/06 08:33:40;;;;;;;10.20;5.38;;;;;;;32.20;48.94;94544.31;5091786;28;20189;-45
2023/07/06 08:36:08;;;;;;;6.07;5.47;;;;;;;31.68;49.14;94516.63;5091196;28;20181;-44
2023/07/06 08:38:37;;;;;;;8.13;5.35;;;;;;;31.49;50.24;94536.84;5091106;28;20182;-46
2023/07/06 08:41:14;;;;;;;6.20;5.55;;;;;;;31.35;50.96;94544.59;5090624;28;20194;-46
2023/07/06 08:43:42;;;;;;;8.77;5.35;;;;;;;31.28;50.90;94538.78;5091051;28;20611;-45
2023/07/06 08:46:12;;;;;;;7.53;4.93;;;;;;;31.17;51.21;94539.84;5091130;28;20198;-45
2023/07/06 08:48:39;;;;;;;5.53;5.03;;;;;;;31.21;52.07;94535.63;5090955;28;20748;-45
2023/07/06 08:51:17;;;;;;;7.78;5.30;;;;;;;31.45;51.99;94543.75;5091267;28;20178;-45
2023/07/06 08:53:52;;;;;;;8.82;5.18;;;;;;;31.66;50.29;94539.13;5091480;28;20200;-44
2023/07/06 08:56:21;;;;;;;5.50;5.00;;;;;;;31.68;50.26;94542.28;5090672;28;20637;-46
2023/07/06 08:58:49;;;;;;;8.77;5.90;;;;;;;31.70;49.92;94543.59;5090602;28;20677;-45
2023/07/06 09:01:21;;;;;;;9.75;5.15;;;;;;;31.52;51.53;94535.50;5090497;28;20585;-47
2023/07/06 09:03:50;;;;;;;5.82;5.30;;;;;;;31.34;50.64;94537.69;5090039;28;20267;-44
2023/07/06 09:06:21;;;;;;;9.02;5.32;;;;;;;31.14;51.18;94538.56;5090609;28;20182;-48
2023/07/06 09:08:53;;;;;;;9.50;6.20;;;;;;;31.07;51.52;94540.69;5072748;28;20197;-46
2023/07/06 09:11:22;;;;;;;10.50;5.22;;;;;;;31.29;51.83;94542.22;5090841;28;20197;-46
2023/07/06 09:13:51;;;;;;;6.85;5.43;;;;;;;31.49;50.91;94534.22;5090552;28;20201;-46
2023/07/06 09:16:20;;;;;;;5.53;5.03;;;;;;;31.65;50.66;94543.63;5090448;28;20200;-46
2023/07/06 09:18:48;;;;;;;6.85;5.28;;;;;;;31.82;50.72;94535.31;5090571;28;20186;-46
2023/07/06 09:21:17;;;;;;;6.50;5.90;;;;;;;31.94;49.76;94541.09;5090688;28;20203;-45
2023/07/06 09:23:45;;;;;;;7.18;5.65;;;;;;;31.72;49.51;94541.47;5090516;28;20225;-46
2023/07/06 09:26:23;;;;;;;5.32;4.82;;;;;;;31.67;50.23;94536.22;5090372;28;20188;-45
2023/07/06 09:28:51;;;;;;;7.40;5.97;;;;;;;31.64;49.83;94542.03;5090258;28;20328;-46
2023/07/06 09:31:22;;;;;;;7.50;5.72;;;;;;;31.75;50.09;94528.78;5090370;28;20641;-47
2023/07/06 09:33:53;;;;;;;12.52;5.80;;;;;;;31.87;49.70;94529.25;5090278;28;20217;-46
2023/07/06 09:36:25;;;;;;;5.95;5.30;;;;;;;31.86;49.04;94527.66;5090494;28;20277;-46
2023/07/06 09:38:52;;;;;;;10.32;5.97;;;;;;;31.51;49.29;94532.06;5090246;28;20551;-45
2023/07/06 09:41:22;;;;;;;9.40;5.88;;;;;;;31.11;51.03;94525.88;5090785;28;20190;-44
2023/07/06 09:43:53;;;;;;;5.93;5.32;;;;;;;31.02;51.91;94529.34;5090215;28;20226;-47
2023/07/06 09:46:22;;;;;;;6.57;5.50;;;;;;;31.07;51.32;94522.19;5090602;28;20190;-43
2023/07/06 09:48:49;;;;;;;6.82;5.07;;;;;;;31.11;51.02;94515.31;5090156;28;20194;-45
2023/07/06 09:51:23;;;;;;;7.32;5.53;;;;;;;31.07;51.22;94510.84;5090391;28;20185;-46
2023/07/06 09:53:55;;;;;;;6.78;5.07;;;;;;;31.34;51.05;94519.19;5090528;28;20763;-47
2023/07/06 09:56:28;;;;;;;6.30;5.68;;;;;;;31.52;50.64;94524.91;5091055;28;20649;-45
2023/07/06 09:58:55;;;;;;;6.20;5.47;;;;;;;31.60;50.81;94524.34;5090410;28;20703;-47
2023/07/06 10:01:33;;;;;;;7.82;5.95;;;;;;;31.51;50.22;94521.50;5090856;28;20204;-45
2023/07/06 10:04:17;;;;;;;8.68;5.82;;;;;;;31.35;50.19;94512.88;5090113;28;20287;-45
2023/07/06 10:07:00;;;;;;;9.38;5.80;;;;;;;31.22;50.67;94510.78;5089721;28;20692;-47
2023/07/06 10:09:31;;;;;;;5.43;5.03;;;;;;;31.10;51.38;94516.38;5090323;28;20219;-47
2023/07/06 10:12:09;;;;;;;6.93;5.43;;;;;;;30.99;51.13;94506.91;5089602;28;20208;-45
2023/07/06 10:14:44;;;;;;;6.90;5.00;;;;;;;31.01;51.13;94502.16;5089561;28;20691;-43
2023/07/06 10:17:27;;;;;;;5.75;4.82;;;;;;;31.06;50.87;94511.91;5089843;28;20220;-47
2023/07/06 10:20:03;;;;;;;5.55;5.03;;;;;;;30.98;50.59;94516.69;5089380;28;20189;-45
2023/07/06 10:22:38;;;;;;;5.10;4.50;;;;;;;30.94;50.01;94517.50;5089935;28;20217;-46
2023/07/06 10:25:19;;;;;;;5.50;4.30;;;;;;;30.94;49.61;94520.13;5089657;28;20181;-46
2023/07/06 10:27:53;;;;;;;5.40;4.78;;;;;;;30.98;50.08;94523.81;5089604;28;20689;-46
2023/07/06 10:30:25;;;;;;;8.82;4.97;;;;;;;30.65;49.17;94464.47;5089510;28;20194;-47
2023/07/06 10:32:57;;;;;;;6.60;4.72;;;;;;;31.12;49.36;94527.47;5089748;28;20190;-46
2023/07/06 10:35:29;;;;;;;4.75;4.35;;;;;;;31.13;49.56;94513.22;5089926;28;20186;-46
2023/07/06 10:37:57;;;;;;;6.32;4.72;;;;;;;31.19;49.52;94512.13;5089564;28;20189;-46
2023/07/06 10:40:26;;;;;;;7.22;4.72;;;;;;;31.24;49.07;94506.81;5089528;28;20193;-46
2023/07/06 10:43:21;;;;;;;7.05;5.05;;;;;;;31.38;49.14;94509.66;5089598;28;20743;-45
2023/07/06 10:45:49;;;;;;;8.77;5.38;;;;;;;31.59;49.08;94512.19;5089787;28;20214;-44
2023/07/06 10:48:27;;;;;;;5.05;4.60;;;;;;;31.64;48.45;94523.53;5089353;28;20194;-46
2023/07/06 10:51:12;;;;;;;6.32;4.70;;;;;;;31.45;47.61;94517.31;5089762;28;20280;-43
2023/07/06 10:53:40;;;;;;;4.38;4.07;;;;;;;31.46;48.17;94513.59;5089196;28;20197;-46
2023/07/06 10:56:17;;;;;;;6.82;5.05;;;;;;;31.07;48.89;94450.88;5089689;28;20293;-45
2023/07/06 10:58:55;;;;;;;5.25;4.75;;;;;;;31.47;48.26;94510.66;5089168;28;20325;-45
2023/07/06 11:01:24;;;;;;;6.28;4.95;;;;;;;31.33;48.77;94498.34;5089895;28;20184;-46
2023/07/06 11:03:51;;;;;;;6.03;4.68;;;;;;;31.31;48.69;94493.34;5089301;28;20611;-47
2023/07/06 11:06:54;;;;;;;9.23;5.72;;;;;;;31.34;49.22;94499.91;5093272;28;20207;-47
2023/07/06 11:09:21;;;;;;;6.93;5.65;;;;;;;31.21;50.73;94495.97;5093034;28;20228;-46
2023/07/06 11:12:20;;;;;;;9.27;6.20;;;;;;;31.16;51.46;94491.50;5092609;28;20220;-45
2023/07/06 11:14:50;;;;;;;11.25;6.22;;;;;;;31.17;51.78;94487.00;5092969;28;20216;-46
2023/07/06 11:17:31;;;;;;;13.02;6.25;;;;;;;31.20;50.54;94489.13;5092800;28;20185;-46
2023/07/06 11:20:03;;;;;;;8.38;6.50;;;;;;;31.13;51.04;94478.03;5093276;28;20251;-46
2023/07/06 11:22:31;;;;;;;6.50;5.78;;;;;;;31.29;50.19;94479.59;5092647;28;20293;-46
2023/07/06 11:25:03;;;;;;;6.22;5.65;;;;;;;31.34;49.82;94484.06;5092774;28;20190;-45
2023/07/06 11:27:35;;;;;;;7.05;5.45;;;;;;;31.40;49.81;94481.13;5092483;28;20201;-46
2023/07/06 11:30:12;;;;;;;5.90;4.95;;;;;;;31.51;49.86;94476.53;5092728;28;20529;-45
2023/07/06 11:32:52;;;;;;;8.38;6.20;;;;;;;31.42;49.53;94473.69;5092686;28;20181;-45
2023/07/06 11:35:42;;;;;;;5.65;5.25;;;;;;;31.47;50.09;94483.44;5092828;28;20338;-44
2023/07/06 11:38:24;;;;;;;11.98;5.25;;;;;;;31.50;50.22;94490.06;5092456;28;20193;-45
2023/07/06 11:41:11;;;;;;;5.68;5.20;;;;;;;31.69;48.64;94490.97;5092252;28;20278;-46